createdAt,value
2022-10-24T00:01:25.135Z,68487.53
2022-10-24T00:03:52.418Z,68465.56
2022-10-24T00:06:20.474Z,68486.75
2022-10-24T00:08:47.906Z,68496.59
2022-10-24T00:11:26.967Z,68468.38
2022-10-24T00:13:56.676Z,68489.97
2022-10-24T00:16:24.346Z,68479.56
2022-10-24T00:18:51.732Z,68477.69
2022-10-24T00:21:19.146Z,68451.38
2022-10-24T00:23:46.463Z,68472.94
2022-10-24T00:26:14.554Z,68473.53
2022-10-24T00:28:41.876Z,68475.59
2022-10-24T00:31:14.827Z,68470.28
2022-10-24T00:33:43.350Z,68469.72
2022-10-24T00:36:15.979Z,68471.81
2022-10-24T00:38:43.900Z,68465.19
2022-10-24T00:41:21.682Z,68464.06
2022-10-24T00:43:49.156Z,68465.75
2022-10-24T00:46:18.134Z,68462.19
2022-10-24T00:48:54.730Z,68460.09
2022-10-24T00:51:27.270Z,68459.53
2022-10-24T00:54:00.158Z,68462.19
2022-10-24T00:56:32.270Z,68463.31
2022-10-24T00:59:02.961Z,68459.91
2022-10-24T01:01:30.276Z,68436.06
2022-10-24T01:03:57.543Z,68459.91
2022-10-24T01:06:44.314Z,68452.72
2022-10-24T01:09:24.396Z,68458.59
2022-10-24T01:12:15.914Z,68451.00
2022-10-24T01:15:04.872Z,68451.00
2022-10-24T01:17:50.757Z,68450.44
2022-10-24T01:20:34.612Z,68451.38
2022-10-24T01:23:27.465Z,68459.16
2022-10-24T01:26:13.388Z,68451.59
2022-10-24T01:28:57.581Z,68459.31
2022-10-24T01:31:35.614Z,68452.16
2022-10-24T01:34:11.150Z,68449.31
2022-10-24T01:37:04.206Z,68442.69
2022-10-24T01:39:36.824Z,68445.91
2022-10-24T01:42:06.396Z,68450.63
2022-10-24T01:44:44.328Z,68454.25
2022-10-24T01:47:19.518Z,68459.53
2022-10-24T01:49:53.589Z,68450.25
2022-10-24T01:52:23.727Z,68478.63
2022-10-24T01:54:52.111Z,68479.00
2022-10-24T01:57:19.446Z,68482.78
2022-10-24T01:59:48.892Z,68489.78
2022-10-24T02:02:27.394Z,68465.00
2022-10-24T02:04:59.937Z,68481.66
2022-10-24T02:07:30.869Z,68474.25
2022-10-24T02:10:03.212Z,68469.16
2022-10-24T02:12:31.577Z,68471.63
2022-10-24T02:15:05.161Z,68466.72
2022-10-24T02:17:32.635Z,68461.03
2022-10-24T02:20:00.808Z,68459.53
2022-10-24T02:22:41.980Z,68462.75
2022-10-24T02:25:39.889Z,68458.38
2022-10-24T02:28:15.717Z,68456.31
2022-10-24T02:30:54.168Z,68464.44
2022-10-24T02:33:22.287Z,68451.38
2022-10-24T02:35:50.632Z,68495.25
2022-10-24T02:38:28.637Z,68499.06
2022-10-24T02:40:58.224Z,68495.47
2022-10-24T02:43:27.890Z,68497.91
2022-10-24T02:45:58.399Z,68499.22
2022-10-24T02:48:32.736Z,68502.09
2022-10-24T02:51:01.065Z,68503.81
2022-10-24T02:53:30.154Z,68510.59
2022-10-24T02:55:57.548Z,68521.22
2022-10-24T02:58:24.891Z,68536.16
2022-10-24T03:00:55.496Z,68551.47
2022-10-24T03:03:23.084Z,68564.38
2022-10-24T03:05:50.375Z,68561.13
2022-10-24T03:08:17.723Z,68555.84
2022-10-24T03:10:44.975Z,68549.59
2022-10-24T03:13:12.675Z,68550.16
2022-10-24T03:15:40.032Z,68538.44
2022-10-24T03:18:07.345Z,68542.78
2022-10-24T03:20:34.668Z,68520.03
2022-10-24T03:23:01.986Z,68544.47
2022-10-24T03:25:29.279Z,68521.75
2022-10-24T03:27:56.539Z,68536.91
2022-10-24T03:30:24.307Z,68534.44
2022-10-24T03:32:51.526Z,68508.13
2022-10-24T03:35:19.017Z,68531.81
2022-10-24T03:37:46.258Z,68501.88
2022-10-24T03:40:27.898Z,68525.19
2022-10-24T03:42:55.266Z,68527.44
2022-10-24T03:45:22.560Z,68523.09
2022-10-24T03:47:49.824Z,68542.41
2022-10-24T03:50:17.164Z,68559.41
2022-10-24T03:52:44.537Z,68572.47
2022-10-24T03:55:12.633Z,68558.06
2022-10-24T03:57:39.966Z,68582.69
2022-10-24T04:00:07.936Z,68589.91
2022-10-24T04:02:37.004Z,68593.69
2022-10-24T04:05:06.986Z,68561.47
2022-10-24T04:07:34.287Z,68574.56
2022-10-24T04:10:01.509Z,68560.38
2022-10-24T04:12:28.902Z,68525.72
2022-10-24T04:14:57.840Z,68508.13
2022-10-24T04:17:27.034Z,68518.16
2022-10-24T04:19:54.201Z,68513.06
2022-10-24T04:22:21.700Z,68517.81
2022-10-24T04:24:49.066Z,68514.22
2022-10-24T04:27:16.490Z,68493.94
2022-10-24T04:29:43.822Z,68529.72
2022-10-24T04:32:11.079Z,68517.78
2022-10-24T04:34:38.326Z,68546.19
2022-10-24T04:37:05.871Z,68549.59
2022-10-24T04:39:33.352Z,68560.00
2022-10-24T04:42:00.604Z,68556.38
2022-10-24T04:44:27.993Z,68595.38
2022-10-24T04:46:55.199Z,68600.69
2022-10-24T04:49:22.505Z,68604.66
2022-10-24T04:51:49.713Z,68613.19
2022-10-24T04:54:17.149Z,68594.97
2022-10-24T04:56:44.399Z,68631.34
2022-10-24T04:59:11.615Z,68643.66
2022-10-24T05:01:38.950Z,68664.31
2022-10-24T05:04:06.289Z,68674.00
2022-10-24T05:06:33.536Z,68670.78
2022-10-24T05:09:00.844Z,68662.81
2022-10-24T05:11:28.040Z,68669.06
2022-10-24T05:13:55.486Z,68670.78
2022-10-24T05:16:22.844Z,68661.44
2022-10-24T05:18:50.349Z,68666.22
2022-10-24T05:21:17.576Z,68666.78
2022-10-24T05:23:44.757Z,68666.22
2022-10-24T05:26:11.980Z,68666.78
2022-10-24T05:28:39.208Z,68683.66
2022-10-24T05:31:06.527Z,68654.03
2022-10-24T05:33:33.818Z,68677.41
2022-10-24T05:36:01.072Z,68677.97
2022-10-24T05:38:28.299Z,68661.66
2022-10-24T05:40:55.540Z,68662.44
2022-10-24T05:43:22.768Z,68666.03
2022-10-24T05:48:18.288Z,68672.78
2022-10-24T05:50:45.604Z,68694.63
2022-10-24T05:53:13.126Z,68695.94
2022-10-24T05:55:40.511Z,68703.53
2022-10-24T05:58:07.860Z,68717.38
2022-10-24T06:00:35.133Z,68705.16
2022-10-24T06:03:02.364Z,68738.19
2022-10-24T06:05:29.885Z,68704.03
2022-10-24T06:07:59.546Z,68727.59
2022-10-24T06:10:26.751Z,68705.16
2022-10-24T06:12:54.042Z,68723.44
2022-10-24T06:15:21.422Z,68699.50
2022-10-24T06:17:48.869Z,68733.09
2022-10-24T06:20:16.185Z,68746.34
2022-10-24T06:25:55.529Z,68744.09
2022-10-24T06:28:22.991Z,68735.72
2022-10-24T06:30:56.496Z,68724.38
2022-10-24T06:33:23.956Z,68730.44
2022-10-24T06:35:51.336Z,68731.97
2022-10-24T06:38:18.638Z,68734.78
2022-10-24T06:40:45.958Z,68726.84
2022-10-24T06:43:13.384Z,68710.91
2022-10-24T06:45:40.917Z,68702.00
2022-10-24T06:48:08.316Z,68698.78
2022-10-24T06:50:36.865Z,68701.81
2022-10-24T06:53:04.228Z,68706.56
2022-10-24T06:55:31.443Z,68699.00
2022-10-24T06:57:58.753Z,68682.69
2022-10-24T07:02:59.434Z,68660.53
2022-10-24T07:05:26.908Z,68650.88
2022-10-24T07:07:54.500Z,68643.88
2022-10-24T07:10:21.875Z,68638.34
2022-10-24T07:12:49.082Z,68642.72
2022-10-24T07:15:26.239Z,68643.66
2022-10-24T07:17:54.361Z,68654.47
2022-10-24T07:20:21.734Z,68650.88
2022-10-24T07:22:49.434Z,68669.63
2022-10-24T07:25:18.625Z,68678.53
2022-10-24T07:27:46.006Z,68681.56
2022-10-24T07:30:18.626Z,68676.84
2022-10-24T07:32:46.858Z,68655.19
2022-10-24T07:35:14.611Z,68681.38
2022-10-24T07:37:42.266Z,68685.34
2022-10-24T07:40:10.261Z,68683.09
2022-10-24T07:42:44.230Z,68664.84
2022-10-24T07:45:12.302Z,68686.84
2022-10-24T07:47:39.656Z,68695.78
2022-10-24T07:50:07.711Z,68717.16
2022-10-24T07:52:39.026Z,68729.09
2022-10-24T07:55:06.648Z,68741.22
2022-10-24T07:57:36.963Z,68755.19
2022-10-24T08:00:05.542Z,68831.66
2022-10-24T08:02:39.958Z,68853.09
2022-10-24T08:05:07.983Z,68836.97
2022-10-24T08:07:36.136Z,68813.44
2022-10-24T08:10:05.611Z,68795.25
2022-10-24T08:12:36.516Z,68786.53
2022-10-24T08:15:05.121Z,68775.16
2022-10-24T08:17:33.563Z,68774.03
2022-10-24T08:20:01.312Z,68773.28
2022-10-24T08:22:28.667Z,68767.94
2022-10-24T08:24:56.018Z,68768.34
2022-10-24T08:27:23.412Z,68769.06
2022-10-24T08:29:50.865Z,68748.38
2022-10-24T08:32:18.280Z,68774.19
2022-10-24T08:34:45.551Z,68786.13
2022-10-24T08:37:12.759Z,68796.19
2022-10-24T08:39:40.150Z,68804.38
2022-10-24T08:42:13.181Z,68781.91
2022-10-24T08:44:43.331Z,68785.34
2022-10-24T08:47:13.590Z,68803.22
2022-10-24T08:49:45.241Z,68804.19
2022-10-24T08:52:30.327Z,68800.94
2022-10-24T08:55:20.279Z,68810.06
2022-10-24T08:57:58.071Z,68819.53
2022-10-24T09:00:31.821Z,68814.59
2022-10-24T09:03:10.802Z,68797.84
2022-10-24T09:05:45.747Z,68824.06
2022-10-24T09:08:43.631Z,68836.59
2022-10-24T09:11:20.973Z,68839.22
2022-10-24T09:13:48.646Z,68853.28
2022-10-24T09:16:22.100Z,68857.81
2022-10-24T09:18:53.033Z,68843.78
2022-10-24T09:21:21.651Z,68824.56
2022-10-24T09:23:50.648Z,68826.84
2022-10-24T09:26:27.578Z,68825.72
2022-10-24T09:28:57.032Z,68825.13
2022-10-24T09:31:27.121Z,68845.88
2022-10-24T09:33:56.567Z,68851.00
2022-10-24T09:36:25.113Z,68849.59
2022-10-24T09:38:52.547Z,68892.53
2022-10-24T09:41:19.805Z,68900.09
2022-10-24T09:43:53.363Z,68891.69
2022-10-24T09:46:24.060Z,68902.47
2022-10-24T09:48:56.879Z,68932.97
2022-10-24T09:51:45.893Z,68945.88
2022-10-24T09:54:19.221Z,68958.00
2022-10-24T09:56:56.729Z,68977.34
2022-10-24T09:59:35.132Z,68957.72
2022-10-24T10:02:29.494Z,68989.31
2022-10-24T10:05:18.332Z,68979.34
2022-10-24T10:07:48.717Z,68975.34
2022-10-24T10:10:18.920Z,68993.84
2022-10-24T10:12:55.938Z,68983.63
2022-10-24T10:15:36.823Z,68984.00
2022-10-24T10:18:22.208Z,68961.09
2022-10-24T10:21:10.557Z,68981.16
2022-10-24T10:23:42.525Z,68954.84
2022-10-24T10:26:15.008Z,68980.59
2022-10-24T10:28:54.821Z,68975.09
2022-10-24T10:31:34.564Z,68973.38
2022-10-24T10:34:21.591Z,68985.31
2022-10-24T10:37:25.212Z,68988.00
2022-10-24T10:40:25.974Z,68967.94
2022-10-24T10:43:10.632Z,68957.72
2022-10-24T10:45:48.257Z,68988.75
2022-10-24T10:48:29.995Z,68984.19
2022-10-24T10:51:16.043Z,68988.16
2022-10-24T10:53:48.057Z,68996.41
2022-10-24T10:57:00.626Z,69040.94
2022-10-24T10:59:36.726Z,69033.16
2022-10-24T11:02:33.297Z,69064.31
2022-10-24T11:05:23.773Z,69041.97
2022-10-24T11:08:15.990Z,69063.53
2022-10-24T11:11:02.719Z,69033.44
2022-10-24T11:13:37.675Z,69030.59
2022-10-24T11:16:12.613Z,69054.25
2022-10-24T11:18:46.578Z,69032.31
2022-10-24T11:21:17.863Z,69066.19
2022-10-24T11:24:14.085Z,69050.50
2022-10-24T11:27:03.235Z,69067.34
2022-10-24T11:29:55.361Z,69071.34
2022-10-24T11:32:29.945Z,69078.19
2022-10-24T11:35:15.556Z,69082.56
2022-10-24T11:37:46.600Z,69096.41
2022-10-24T11:40:19.565Z,69071.03
2022-10-24T11:42:55.743Z,69078.00
2022-10-24T11:45:33.387Z,69040.28
2022-10-24T11:48:21.189Z,69058.81
2022-10-24T11:51:08.507Z,69058.81
2022-10-24T11:53:35.646Z,69032.31
2022-10-24T11:56:34.848Z,69067.91
2022-10-24T11:59:05.438Z,69054.66
2022-10-24T12:01:55.978Z,69033.91
2022-10-24T12:04:38.263Z,69032.41
2022-10-24T12:07:20.682Z,69034.84
2022-10-24T12:09:57.063Z,69000.41
2022-10-24T12:12:31.465Z,69017.03
2022-10-24T12:15:07.881Z,69007.91
2022-10-24T12:17:39.550Z,68987.88
2022-10-24T12:20:14.966Z,69019.31
2022-10-24T12:22:44.629Z,69022.16
2022-10-24T12:25:45.638Z,68991.28
2022-10-24T12:28:22.455Z,69019.88
2022-10-24T12:31:16.085Z,69032.59
2022-10-24T12:33:44.935Z,69029.56
2022-10-24T12:36:13.006Z,69006.06
2022-10-24T12:38:40.215Z,69029.00
2022-10-24T12:41:32.950Z,69049.13
2022-10-24T12:44:34.325Z,69056.72
2022-10-24T12:47:26.329Z,69063.19
2022-10-24T12:49:54.025Z,69044.81
2022-10-24T12:52:33.920Z,69066.59
2022-10-24T12:55:02.740Z,69076.47
2022-10-24T12:57:41.304Z,69057.34
2022-10-24T13:00:31.597Z,69099.66
2022-10-24T13:03:22.938Z,69070.47
2022-10-24T13:06:14.494Z,69083.47
2022-10-24T13:09:13.483Z,69082.41
2022-10-24T13:11:54.917Z,69086.53
2022-10-24T13:14:36.477Z,69051.09
2022-10-24T13:17:40.943Z,69063.94
2022-10-24T13:20:24.943Z,69058.22
2022-10-24T13:23:02.242Z,69052.53
2022-10-24T13:25:38.390Z,69038.00
2022-10-24T13:28:22.245Z,69081.03
2022-10-24T13:31:10.686Z,69056.78
2022-10-24T13:33:43.574Z,69096.22
2022-10-24T13:36:16.269Z,69076.28
2022-10-24T13:38:54.922Z,69070.47
2022-10-24T13:41:38.867Z,69067.75
2022-10-24T13:44:22.041Z,69065.47
2022-10-24T13:47:20.492Z,69093.94
2022-10-24T13:50:28.309Z,69095.09
2022-10-24T13:52:59.903Z,69071.59
2022-10-24T13:55:30.873Z,69088.44
2022-10-24T13:58:11.126Z,69097.94
2022-10-24T14:00:42.880Z,69069.88
2022-10-24T14:03:23.619Z,69091.84
2022-10-24T14:05:58.620Z,69091.66
2022-10-24T14:08:30.599Z,69081.59
2022-10-24T14:11:02.047Z,69078.75
2022-10-24T14:13:32.173Z,69085.56
2022-10-24T14:16:06.232Z,69084.84
2022-10-24T14:18:34.163Z,69087.13
2022-10-24T14:21:02.598Z,69051.66
2022-10-24T14:23:40.454Z,69039.13
2022-10-24T14:26:21.612Z,69053.50
2022-10-24T14:28:59.659Z,69032.88
2022-10-24T14:31:34.947Z,69044.38
2022-10-24T14:34:06.165Z,69042.66
2022-10-24T14:36:37.818Z,69011.78
2022-10-24T14:39:05.665Z,69048.53
2022-10-24T14:41:39.790Z,69056.75
2022-10-24T14:44:08.079Z,69019.75
2022-10-24T14:46:36.596Z,69029.56
2022-10-24T14:49:23.139Z,68999.81
2022-10-24T14:54:32.368Z,69034.28
2022-10-24T14:57:02.167Z,69029.78
2022-10-24T14:59:35.318Z,69016.06
2022-10-24T15:02:04.267Z,69029.00
2022-10-24T15:04:39.180Z,69017.59
2022-10-24T15:07:22.512Z,69028.81
2022-10-24T15:09:53.038Z,69002.69
2022-10-24T15:12:32.008Z,69029.94
2022-10-24T15:15:33.922Z,69017.75
2022-10-24T15:18:17.397Z,68978.75
2022-10-24T15:20:47.928Z,69009.78
2022-10-24T15:23:26.475Z,68990.72
2022-10-24T15:26:09.341Z,69011.91
2022-10-24T15:29:05.656Z,68999.00
2022-10-24T15:31:37.678Z,68974.22
2022-10-24T15:34:07.702Z,68995.41
2022-10-24T15:36:39.419Z,68989.53
2022-10-24T15:39:10.670Z,68984.00
2022-10-24T15:41:39.450Z,68980.59
2022-10-24T15:44:21.676Z,68970.75
2022-10-24T15:46:51.375Z,68956.84
2022-10-24T15:49:19.162Z,68951.38
2022-10-24T15:51:49.909Z,68922.41
2022-10-24T15:54:20.717Z,68937.91
2022-10-24T15:56:48.542Z,68944.16
2022-10-24T15:59:15.704Z,68940.72
2022-10-24T16:01:48.796Z,68947.00
2022-10-24T16:04:16.917Z,68903.03
2022-10-24T16:06:44.880Z,68920.22
2022-10-24T16:09:26.585Z,68922.34
2022-10-24T16:11:54.863Z,68904.47
2022-10-24T16:14:23.241Z,68905.25
2022-10-24T16:16:50.381Z,68904.47
2022-10-24T16:19:17.798Z,68904.47
2022-10-24T16:21:44.976Z,68900.31
2022-10-24T16:24:12.863Z,68904.88
2022-10-24T16:26:40.486Z,68908.84
2022-10-24T16:29:07.737Z,68913.03
2022-10-24T16:31:35.137Z,68895.75
2022-10-24T16:34:02.739Z,68910.16
2022-10-24T16:36:30.191Z,68901.44
2022-10-24T16:38:57.749Z,68859.25
2022-10-24T16:41:26.648Z,68847.88
2022-10-24T16:43:56.253Z,68847.31
2022-10-24T16:46:25.505Z,68870.72
2022-10-24T16:48:53.486Z,68863.50
2022-10-24T16:51:22.305Z,68862.19
2022-10-24T16:53:49.566Z,68853.66
2022-10-24T16:56:17.201Z,68831.47
2022-10-24T16:58:44.710Z,68835.66
2022-10-24T17:01:15.693Z,68836.97
2022-10-24T17:03:45.144Z,68847.41
2022-10-24T17:06:12.418Z,68845.47
2022-10-24T17:08:39.901Z,68849.28
2022-10-24T17:11:32.095Z,68827.50
2022-10-24T17:13:58.897Z,68816.88
2022-10-24T17:16:26.507Z,68833.19
2022-10-24T17:19:16.713Z,68832.63
2022-10-24T17:21:50.244Z,68821.81
2022-10-24T17:24:24.622Z,68821.63
2022-10-24T17:26:53.076Z,68812.88
2022-10-24T17:29:29.505Z,68820.09
2022-10-24T17:31:57.631Z,68822.94
2022-10-24T17:34:25.815Z,68827.50
2022-10-24T17:37:20.339Z,68780.78
2022-10-24T17:39:49.960Z,68823.50
2022-10-24T17:42:19.622Z,68793.28
2022-10-24T17:44:48.135Z,68813.66
2022-10-24T17:47:16.305Z,68817.25
2022-10-24T17:49:48.073Z,68827.09
2022-10-24T17:52:23.106Z,68825.22
2022-10-24T17:54:52.143Z,68811.19
2022-10-24T17:57:19.471Z,68813.84
2022-10-24T17:59:47.638Z,68815.56
2022-10-24T18:02:16.620Z,68807.75
2022-10-24T18:04:45.327Z,68805.13
2022-10-24T18:07:13.028Z,68791.25
2022-10-24T18:09:41.085Z,68782.16
2022-10-24T18:12:09.994Z,68780.28
2022-10-24T18:14:37.795Z,68761.50
2022-10-24T18:17:05.478Z,68745.75
2022-10-24T18:19:32.985Z,68736.13
2022-10-24T18:22:00.579Z,68731.41
2022-10-24T18:24:27.735Z,68742.38
2022-10-24T18:26:54.946Z,68732.50
2022-10-24T18:29:22.294Z,68719.63
2022-10-24T18:31:49.581Z,68720.59
2022-10-24T18:34:17.057Z,68714.34
2022-10-24T18:36:44.299Z,68695.56
2022-10-24T18:39:12.487Z,68691.59
2022-10-24T18:41:56.424Z,68702.00
2022-10-24T18:44:29.571Z,68721.72
2022-10-24T18:47:01.695Z,68745.03
2022-10-24T18:49:30.420Z,68754.50
2022-10-24T18:52:15.309Z,68732.47
2022-10-24T18:54:55.140Z,68744.09
2022-10-24T18:57:28.196Z,68751.09
2022-10-24T18:59:58.444Z,68744.25
2022-10-24T19:02:37.427Z,68755.81
2022-10-24T19:05:34.037Z,68742.19
2022-10-24T19:08:02.035Z,68741.06
2022-10-24T19:10:38.628Z,68729.69
2022-10-24T19:13:13.034Z,68721.16
2022-10-24T19:15:45.198Z,68688.13
2022-10-24T19:18:18.017Z,68701.81
2022-10-24T19:20:45.855Z,68689.13
2022-10-24T19:23:14.466Z,68712.81
2022-10-24T19:25:41.748Z,68730.25
2022-10-24T19:28:11.826Z,68709.03
2022-10-24T19:30:42.847Z,68734.78
2022-10-24T19:33:12.133Z,68724.00
2022-10-24T19:35:50.136Z,68720.19
2022-10-24T19:38:19.600Z,68701.47
2022-10-24T19:40:52.993Z,68679.84
2022-10-24T19:43:24.641Z,68690.84
2022-10-24T19:46:14.761Z,68693.31
2022-10-24T19:48:42.701Z,68682.69
2022-10-24T19:51:12.109Z,68666.22
2022-10-24T19:53:41.383Z,68681.94
2022-10-24T19:56:14.521Z,68657.44
2022-10-24T19:58:42.778Z,68688.94
2022-10-24T20:01:12.965Z,68689.84
2022-10-24T20:03:42.592Z,68715.09
2022-10-24T20:06:11.421Z,68717.16
2022-10-24T20:08:39.546Z,68711.13
2022-10-24T20:11:08.573Z,68702.78
2022-10-24T20:13:36.437Z,68718.88
2022-10-24T20:16:07.281Z,68731.00
2022-10-24T20:18:36.051Z,68734.22
2022-10-24T20:21:05.983Z,68734.78
2022-10-24T20:23:34.370Z,68742.19
2022-10-24T20:26:14.107Z,68745.59
2022-10-24T20:28:44.234Z,68741.06
2022-10-24T20:31:22.775Z,68758.31
2022-10-24T20:33:50.478Z,68752.03
2022-10-24T20:36:18.827Z,68750.88
2022-10-24T20:38:46.258Z,68750.31
2022-10-24T20:41:13.447Z,68749.75
2022-10-24T20:43:40.772Z,68749.00
2022-10-24T20:46:08.056Z,68758.69
2022-10-24T20:48:36.030Z,68748.63
2022-10-24T20:51:12.014Z,68747.47
2022-10-24T20:53:39.842Z,68758.69
2022-10-24T20:56:08.010Z,68757.13
2022-10-24T20:58:40.723Z,68750.13
2022-10-24T21:01:12.145Z,68739.91
2022-10-24T21:03:39.884Z,68759.81
2022-10-24T21:06:19.159Z,68753.16
2022-10-24T21:08:48.688Z,68763.97
2022-10-24T21:11:17.857Z,68763.41
2022-10-24T21:13:45.721Z,68770.06
2022-10-24T21:16:12.988Z,68736.44
2022-10-24T21:18:40.372Z,68761.13
2022-10-24T21:21:13.672Z,68756.56
2022-10-24T21:23:41.378Z,68755.25
2022-10-24T21:26:11.659Z,68758.09
2022-10-24T21:28:39.215Z,68766.06
2022-10-24T21:31:12.403Z,68755.25
2022-10-24T21:33:41.642Z,68754.47
2022-10-24T21:36:12.590Z,68726.06
2022-10-24T21:38:40.613Z,68728.38
2022-10-24T21:41:09.925Z,68731.97
2022-10-24T21:43:41.625Z,68740.47
2022-10-24T21:46:18.659Z,68720.03
2022-10-24T21:48:46.540Z,68718.88
2022-10-24T21:51:15.534Z,68715.47
2022-10-24T21:53:50.800Z,68711.13
2022-10-24T21:56:20.418Z,68726.28
2022-10-24T21:58:49.611Z,68716.59
2022-10-24T22:01:19.791Z,68696.34
2022-10-24T22:03:47.233Z,68663.69
2022-10-24T22:06:16.495Z,68671.31
2022-10-24T22:08:44.676Z,68685.34
2022-10-24T22:11:14.420Z,68673.59
2022-10-24T22:13:42.998Z,68660.91
2022-10-24T22:16:12.601Z,68676.25
2022-10-24T22:18:40.066Z,68658.09
2022-10-24T22:21:09.915Z,68663.19
2022-10-24T22:23:37.581Z,68656.91
2022-10-24T22:26:05.294Z,68648.97
2022-10-24T22:28:32.654Z,68652.56
2022-10-24T22:31:00.084Z,68640.84
2022-10-24T22:33:35.810Z,68625.13
2022-10-24T22:36:23.238Z,68620.22
2022-10-24T22:38:54.638Z,68615.63
2022-10-24T22:41:22.910Z,68630.22
2022-10-24T22:43:50.690Z,68644.44
2022-10-24T22:46:55.073Z,68656.56
2022-10-24T22:49:36.242Z,68664.88
2022-10-24T22:52:03.909Z,68664.88
2022-10-24T22:54:35.153Z,68661.66
2022-10-24T22:57:04.150Z,68681.94
2022-10-24T22:59:32.473Z,68681.56
2022-10-24T23:02:29.541Z,68675.50
2022-10-24T23:05:00.923Z,68705.81
2022-10-24T23:07:49.980Z,68681.31
2022-10-24T23:10:21.139Z,68709.41
2022-10-24T23:12:49.460Z,68695.38
2022-10-24T23:15:19.045Z,68696.53
2022-10-24T23:17:47.777Z,68671.72
2022-10-24T23:20:26.239Z,68666.97
2022-10-24T23:23:09.021Z,68656.00
2022-10-24T23:25:50.083Z,68652.56
2022-10-24T23:29:12.612Z,68649.34
2022-10-24T23:31:40.278Z,68633.59
2022-10-24T23:34:09.849Z,68664.31
2022-10-24T23:36:43.136Z,68653.69
2022-10-24T23:39:14.138Z,68659.56
2022-10-24T23:41:42.252Z,68655.22
2022-10-24T23:44:12.612Z,68653.53
2022-10-24T23:46:52.088Z,68645.75
2022-10-24T23:49:39.868Z,68632.13
2022-10-24T23:52:26.366Z,68623.78
2022-10-24T23:54:53.931Z,68619.44
2022-10-24T23:57:21.365Z,68629.25
2022-10-24T23:59:48.597Z,68649.34
